Time;durP1;ratioP1;P1;durP2;ratioP2;P2;SDS_P1;SDS_P2;PMS_P1;PMS_P2;Temp;Humidity;BMP_temperature;BMP_pressure;BME280_temperature;BME280_humidity;BME280_pressure;Samples;Min_cycle;Max_cycle;Signal;HPM_P1;HPM_P2
2021/06/03 00:01:45;;;;;;;4.10;3.42;;;18.70;62.80;;;;;;5039009;28;20120;-70
2021/06/03 00:04:11;;;;;;;9.38;3.70;;;18.70;62.60;;;;;;5036930;28;20025;-70
2021/06/03 00:06:37;;;;;;;4.43;3.85;;;18.60;62.70;;;;;;5039166;28;20109;-70
2021/06/03 00:09:03;;;;;;;6.22;3.63;;;18.60;62.50;;;;;;5036774;28;20033;-70
2021/06/03 00:11:29;;;;;;;7.90;3.58;;;18.60;62.60;;;;;;5039014;28;20479;-70
2021/06/03 00:13:54;;;;;;;6.40;4.32;;;18.60;63.10;;;;;;5037029;28;20065;-70
2021/06/03 00:16:20;;;;;;;4.78;3.70;;;18.50;63.30;;;;;;5039447;28;20476;-69
2021/06/03 00:18:45;;;;;;;5.75;3.70;;;18.50;63.00;;;;;;5051088;22;20120;-71
2021/06/03 00:21:12;;;;;;;4.53;3.45;;;18.40;63.40;;;;;;5037995;28;20399;-69
2021/06/03 00:23:37;;;;;;;3.50;3.20;;;18.40;63.80;;;;;;5038122;28;20025;-69
2021/06/03 00:26:03;;;;;;;4.63;4.10;;;18.40;63.60;;;;;;5031632;28;20491;-70
2021/06/03 00:28:29;;;;;;;3.70;3.20;;;18.30;63.90;;;;;;5024577;28;20043;-71
2021/06/03 00:30:54;;;;;;;6.60;3.28;;;18.30;63.80;;;;;;5027936;28;20133;-71
2021/06/03 00:33:20;;;;;;;3.78;3.45;;;18.30;63.80;;;;;;5027862;28;20033;-70
2021/06/03 00:35:45;;;;;;;3.35;2.97;;;18.20;63.90;;;;;;5028717;28;20029;-71
2021/06/03 00:38:11;;;;;;;6.38;3.75;;;18.20;64.10;;;;;;5026400;28;20060;-70
2021/06/03 00:40:37;;;;;;;4.30;2.95;;;18.20;63.90;;;;;;5026230;28;20400;-71
2021/06/03 00:43:04;;;;;;;3.90;3.20;;;18.20;64.20;;;;;;5025858;28;20361;-71
2021/06/03 00:45:33;;;;;;;5.32;3.67;;;18.10;64.40;;;;;;5026549;28;20030;-71
2021/06/03 00:47:59;;;;;;;3.75;3.45;;;18.10;64.10;;;;;;5027858;28;20116;-71
2021/06/03 00:50:35;;;;;;;8.25;3.90;;;18.10;64.00;;;;;;5026601;28;20029;-71
2021/06/03 00:53:02;;;;;;;7.47;3.33;;;18.10;64.40;;;;;;5027871;28;20083;-71
2021/06/03 00:55:28;;;;;;;6.38;4.22;;;18.00;64.40;;;;;;5026008;28;20052;-71
2021/06/03 00:57:53;;;;;;;5.18;4.05;;;17.90;64.70;;;;;;5027957;28;20045;-71
2021/06/03 01:00:19;;;;;;;9.35;3.72;;;17.90;64.90;;;;;;5028069;28;20148;-71
2021/06/03 01:02:45;;;;;;;3.75;3.30;;;17.90;64.90;;;;;;5022145;28;20033;-71
2021/06/03 01:05:15;;;;;;;5.30;3.55;;;17.90;64.80;;;;;;5028457;28;20052;-70
2021/06/03 01:07:40;;;;;;;4.32;3.85;;;17.80;65.30;;;;;;5027940;28;20124;-70
2021/06/03 01:10:12;;;;;;;6.05;3.42;;;17.80;65.50;;;;;;5028216;28;20105;-71
2021/06/03 01:12:48;;;;;;;6.68;4.22;;;17.80;65.40;;;;;;5027979;28;20022;-70
2021/06/03 01:15:15;;;;;;;4.60;2.92;;;17.70;65.60;;;;;;5025931;28;20049;-70
2021/06/03 01:17:41;;;;;;;5.25;3.50;;;17.70;65.60;;;;;;5025135;28;20292;-71
2021/06/03 01:20:08;;;;;;;4.75;4.15;;;17.70;65.70;;;;;;5027253;28;20026;-71
2021/06/03 01:22:40;;;;;;;3.67;3.25;;;17.70;65.80;;;;;;5028279;28;20022;-70
2021/06/03 01:25:09;;;;;;;4.82;3.70;;;17.70;65.70;;;;;;5027693;28;20080;-70
2021/06/03 01:27:34;;;;;;;4.18;3.40;;;17.60;66.40;;;;;;5024736;28;20022;-70
2021/06/03 01:30:07;;;;;;;6.20;3.72;;;17.60;66.90;;;;;;5026388;28;20041;-71
2021/06/03 01:32:36;;;;;;;5.05;3.42;;;17.50;66.60;;;;;;5038658;28;20044;-71
2021/06/03 01:35:01;;;;;;;3.72;3.30;;;17.50;67.00;;;;;;5026191;28;20488;-71
2021/06/03 01:37:27;;;;;;;4.20;3.08;;;17.50;66.60;;;;;;5026989;28;20034;-71
2021/06/03 01:39:53;;;;;;;7.47;3.83;;;17.40;67.30;;;;;;5026921;28;20026;-71
2021/06/03 01:42:20;;;;;;;6.68;3.40;;;17.40;67.00;;;;;;5026477;28;20038;-71
2021/06/03 01:44:47;;;;;;;11.18;3.70;;;17.40;66.90;;;;;;5030600;28;20039;-70
2021/06/03 01:47:13;;;;;;;4.88;3.90;;;17.40;67.00;;;;;;5030205;28;20033;-70
2021/06/03 01:49:41;;;;;;;5.68;4.13;;;17.40;67.10;;;;;;5024031;28;20442;-70
2021/06/03 01:52:09;;;;;;;5.88;3.30;;;17.40;66.70;;;;;;5029422;28;20021;-71
2021/06/03 01:54:35;;;;;;;5.47;4.13;;;17.40;66.80;;;;;;5030593;28;20034;-71
2021/06/03 01:57:02;;;;;;;17.13;13.25;;;17.40;67.00;;;;;;5031129;28;20021;-71
2021/06/03 01:59:28;;;;;;;7.68;6.50;;;17.40;67.10;;;;;;5030584;28;20029;-71
2021/06/03 02:01:53;;;;;;;10.80;8.00;;;17.50;66.90;;;;;;5029101;28;20557;-70
2021/06/03 02:04:19;;;;;;;8.48;6.85;;;17.40;66.90;;;;;;5029691;28;20037;-70
2021/06/03 02:06:45;;;;;;;7.45;5.60;;;17.50;66.60;;;;;;5028225;28;20084;-70
2021/06/03 02:09:12;;;;;;;6.50;4.22;;;17.40;66.50;;;;;;5044475;28;20083;-70
2021/06/03 02:11:39;;;;;;;4.28;3.83;;;17.40;66.70;;;;;;5031035;28;20116;-70
2021/06/03 02:14:09;;;;;;;5.05;2.97;;;17.50;66.80;;;;;;5029957;28;20025;-70
2021/06/03 02:16:54;;;;;;;5.63;4.20;;;17.50;67.00;;;;;;5045963;28;20025;-70
2021/06/03 02:19:31;;;;;;;5.40;4.53;;;17.50;66.60;;;;;;5043322;28;20036;-70
2021/06/03 02:21:57;;;;;;;6.88;3.95;;;17.40;66.60;;;;;;5028555;28;20044;-70
2021/06/03 02:24:23;;;;;;;8.13;3.80;;;17.40;67.50;;;;;;5031250;28;20096;-70
2021/06/03 02:26:49;;;;;;;4.75;3.88;;;17.40;67.20;;;;;;5029813;28;20116;-71
2021/06/03 02:29:16;;;;;;;5.88;4.50;;;17.40;67.00;;;;;;5030683;28;20056;-71
2021/06/03 02:31:44;;;;;;;5.28;3.20;;;17.40;67.10;;;;;;5029134;28;20026;-71
2021/06/03 02:34:09;;;;;;;5.88;3.90;;;17.40;67.10;;;;;;5029585;28;20032;-71
2021/06/03 02:36:35;;;;;;;4.75;3.78;;;17.40;67.30;;;;;;5029185;28;20029;-71
2021/06/03 02:39:00;;;;;;;4.40;3.55;;;17.40;67.40;;;;;;5027657;28;20033;-71
2021/06/03 02:41:26;;;;;;;5.85;3.67;;;17.40;67.70;;;;;;5030282;28;20072;-71
2021/06/03 02:43:52;;;;;;;6.03;3.53;;;17.30;67.40;;;;;;5029330;28;20109;-71
2021/06/03 02:46:20;;;;;;;10.20;4.28;;;17.30;67.60;;;;;;5031077;28;20033;-71
2021/06/03 02:48:46;;;;;;;6.63;3.47;;;17.30;67.80;;;;;;5042222;28;20061;-71
2021/06/03 02:51:12;;;;;;;4.57;4.05;;;17.30;67.10;;;;;;5030881;28;20079;-71
2021/06/03 02:53:39;;;;;;;6.13;4.05;;;17.30;67.60;;;;;;5027382;28;20083;-71
2021/06/03 02:56:05;;;;;;;5.35;4.00;;;17.30;67.60;;;;;;5030076;28;20026;-71
2021/06/03 02:58:30;;;;;;;6.55;3.80;;;17.30;67.70;;;;;;5027795;28;20112;-71
2021/06/03 03:00:56;;;;;;;8.68;4.45;;;17.30;67.50;;;;;;5030512;28;20112;-71
2021/06/03 03:03:23;;;;;;;5.40;4.30;;;17.30;67.60;;;;;;5030054;28;20113;-71
2021/06/03 03:05:49;;;;;;;7.88;4.07;;;17.30;67.80;;;;;;5030208;28;20025;-71
2021/06/03 03:08:14;;;;;;;5.95;4.57;;;17.30;67.70;;;;;;5027151;28;20033;-71
2021/06/03 03:10:43;;;;;;;7.65;4.88;;;17.20;67.60;;;;;;5026131;28;20033;-71
2021/06/03 03:13:10;;;;;;;8.23;3.75;;;17.20;67.40;;;;;;5027491;28;20480;-71
2021/06/03 03:15:36;;;;;;;6.93;4.25;;;17.20;68.30;;;;;;5029115;28;20025;-71
2021/06/03 03:18:03;;;;;;;4.90;4.35;;;17.20;68.10;;;;;;5028399;28;20572;-71
2021/06/03 03:20:30;;;;;;;5.05;4.22;;;17.10;67.90;;;;;;5043566;28;20064;-71
2021/06/03 03:22:56;;;;;;;6.10;3.63;;;17.20;68.00;;;;;;5027680;28;20076;-71
2021/06/03 03:25:24;;;;;;;8.07;4.15;;;17.20;68.40;;;;;;5030456;28;20030;-71
2021/06/03 03:27:50;;;;;;;10.05;5.18;;;17.20;68.30;;;;;;5041722;28;20013;-71
2021/06/03 03:30:19;;;;;;;5.72;3.85;;;17.30;68.40;;;;;;5026629;28;20416;-71
2021/06/03 03:32:45;;;;;;;6.63;4.68;;;17.30;68.10;;;;;;5028953;28;20152;-71
2021/06/03 03:35:11;;;;;;;6.38;3.97;;;17.30;68.40;;;;;;5044951;28;20033;-71
2021/06/03 03:37:41;;;;;;;7.10;4.53;;;17.30;68.50;;;;;;5029758;28;20048;-71
2021/06/03 03:40:09;;;;;;;8.90;3.97;;;17.30;68.70;;;;;;5029333;28;20496;-71
2021/06/03 03:42:36;;;;;;;12.98;3.80;;;17.30;69.00;;;;;;5029331;28;20041;-71
2021/06/03 03:45:02;;;;;;;12.25;5.15;;;17.30;69.20;;;;;;5024144;28;20033;-71
2021/06/03 03:47:28;;;;;;;5.63;4.18;;;17.30;69.10;;;;;;5028539;28;20092;-71
2021/06/03 03:49:53;;;;;;;5.78;4.22;;;17.50;69.20;;;;;;5029241;28;20120;-71
2021/06/03 03:52:19;;;;;;;6.47;4.28;;;17.70;69.10;;;;;;5029568;28;20096;-71
2021/06/03 03:54:44;;;;;;;5.35;4.45;;;17.90;68.70;;;;;;5028604;28;20123;-71
2021/06/03 03:57:10;;;;;;;7.40;4.88;;;18.20;68.20;;;;;;5032372;28;20488;-71
2021/06/03 03:59:36;;;;;;;7.15;4.60;;;18.70;67.50;;;;;;5025860;28;20104;-70
2021/06/03 04:02:03;;;;;;;9.35;5.05;;;18.90;66.70;;;;;;5027457;28;20136;-71
2021/06/03 04:04:29;;;;;;;7.38;4.78;;;18.80;66.50;;;;;;5043914;28;20538;-71
2021/06/03 04:06:56;;;;;;;6.22;4.82;;;18.70;66.30;;;;;;5029468;28;20064;-71
2021/06/03 04:09:22;;;;;;;10.48;4.68;;;18.70;66.60;;;;;;5027701;28;20387;-71
2021/06/03 04:11:47;;;;;;;9.55;4.85;;;18.70;66.50;;;;;;5027664;28;20124;-71
2021/06/03 04:14:13;;;;;;;10.27;5.85;;;18.60;66.70;;;;;;5028129;28;20060;-71
2021/06/03 04:16:38;;;;;;;11.27;5.15;;;18.50;66.80;;;;;;5026036;28;20463;-71
2021/06/03 04:19:04;;;;;;;9.38;4.80;;;18.40;67.20;;;;;;5026666;28;20455;-71
2021/06/03 04:21:30;;;;;;;9.10;4.70;;;18.30;67.10;;;;;;5028815;28;20041;-71
2021/06/03 04:23:55;;;;;;;9.27;4.88;;;18.30;67.20;;;;;;5028508;28;20033;-70
2021/06/03 04:26:21;;;;;;;9.05;5.22;;;18.40;66.90;;;;;;5029123;28;20026;-70
2021/06/03 04:28:47;;;;;;;9.13;5.03;;;18.60;66.40;;;;;;5040828;28;20079;-70
2021/06/03 04:31:13;;;;;;;5.72;4.70;;;19.20;65.60;;;;;;5027119;28;20064;-70
2021/06/03 04:33:38;;;;;;;5.15;4.65;;;19.80;64.30;;;;;;5028362;28;20032;-71
2021/06/03 04:36:04;;;;;;;5.30;4.47;;;19.80;63.80;;;;;;5021632;28;20029;-70
2021/06/03 04:38:30;;;;;;;7.60;4.90;;;19.60;64.00;;;;;;5026417;28;20048;-71
2021/06/03 04:40:55;;;;;;;6.32;4.85;;;19.50;64.40;;;;;;5028100;28;20037;-69
2021/06/03 04:43:21;;;;;;;8.65;4.80;;;19.30;64.30;;;;;;5028524;28;20056;-69
2021/06/03 04:45:47;;;;;;;8.52;5.35;;;19.30;64.40;;;;;;5026135;28;20037;-69
2021/06/03 04:48:13;;;;;;;9.95;8.00;;;19.30;64.30;;;;;;5025614;28;20034;-69
2021/06/03 04:50:39;;;;;;;7.20;6.40;;;19.20;63.50;;;;;;5027813;28;20040;-69
2021/06/03 04:53:06;;;;;;;14.98;10.93;;;19.00;64.30;;;;;;5027408;28;20026;-69
2021/06/03 04:55:32;;;;;;;9.38;6.05;;;19.20;63.80;;;;;;5027287;28;20029;-69
2021/06/03 04:57:58;;;;;;;11.55;7.30;;;19.60;63.40;;;;;;5026964;28;20087;-69
2021/06/03 05:00:26;;;;;;;9.10;6.88;;;19.80;62.90;;;;;;5027846;28;20077;-69
2021/06/03 05:02:52;;;;;;;7.90;5.07;;;19.90;62.50;;;;;;5026237;28;20241;-69
2021/06/03 05:05:19;;;;;;;6.75;5.32;;;20.10;62.20;;;;;;5027568;28;20108;-69
2021/06/03 05:07:46;;;;;;;8.73;5.35;;;20.20;61.80;;;;;;5026596;28;20040;-69
2021/06/03 05:10:13;;;;;;;6.70;5.20;;;20.30;61.30;;;;;;5040326;28;20442;-70
2021/06/03 05:12:39;;;;;;;7.82;5.72;;;20.40;61.20;;;;;;5020871;28;20076;-70
2021/06/03 05:15:06;;;;;;;10.23;5.03;;;20.70;60.70;;;;;;5026095;28;20025;-71
2021/06/03 05:17:32;;;;;;;7.13;5.65;;;21.00;60.00;;;;;;5029402;28;20026;-70
2021/06/03 05:19:58;;;;;;;4.93;4.10;;;21.50;59.00;;;;;;5031155;28;20436;-70
2021/06/03 05:22:23;;;;;;;7.95;4.72;;;21.70;58.60;;;;;;5031388;28;20025;-70
2021/06/03 05:24:49;;;;;;;5.38;4.88;;;21.70;58.40;;;;;;5031514;28;20052;-71
2021/06/03 05:27:14;;;;;;;7.68;4.90;;;22.00;57.40;;;;;;5031776;28;20045;-71
2021/06/03 05:29:40;;;;;;;5.28;4.78;;;21.70;57.50;;;;;;5029622;28;20029;-71
2021/06/03 05:32:06;;;;;;;5.43;4.93;;;21.60;57.70;;;;;;5031892;28;20495;-70
2021/06/03 05:34:32;;;;;;;6.80;4.75;;;21.60;58.00;;;;;;5031973;28;20025;-70
2021/06/03 05:36:58;;;;;;;7.57;4.90;;;21.80;58.10;;;;;;5032086;28;20048;-70
2021/06/03 05:39:23;;;;;;;6.97;4.95;;;21.90;57.70;;;;;;5046589;28;20033;-70
2021/06/03 05:41:49;;;;;;;7.63;5.65;;;21.90;57.90;;;;;;5032066;28;20404;-70
2021/06/03 05:44:14;;;;;;;5.93;5.32;;;21.70;57.70;;;;;;5031980;28;20030;-70
2021/06/03 05:46:41;;;;;;;6.55;5.00;;;21.70;57.90;;;;;;5029044;28;20061;-71
2021/06/03 05:49:08;;;;;;;9.27;5.07;;;21.60;58.30;;;;;;5031572;28;20030;-71
2021/06/03 05:51:35;;;;;;;6.15;5.55;;;21.60;58.20;;;;;;5032195;28;20029;-71
2021/06/03 05:54:00;;;;;;;4.88;4.38;;;21.50;58.20;;;;;;5027339;28;20025;-69
2021/06/03 05:56:26;;;;;;;4.97;4.43;;;21.60;58.10;;;;;;5029705;28;20029;-73
2021/06/03 05:58:53;;;;;;;12.77;5.15;;;21.60;58.50;;;;;;5026646;28;20388;-69
2021/06/03 06:01:20;;;;;;;5.13;4.57;;;21.70;58.20;;;;;;5028373;28;20380;-72
2021/06/03 06:04:12;;;;;;;11.88;4.97;;;21.80;58.50;;;;;;5027771;28;20037;-70
2021/06/03 06:06:37;;;;;;;6.03;3.88;;;21.90;59.10;;;;;;5029513;28;20419;-69
2021/06/03 06:09:06;;;;;;;9.57;4.57;;;22.10;58.50;;;;;;5028574;28;20037;-70
2021/06/03 06:11:33;;;;;;;5.60;4.75;;;22.30;58.10;;;;;;5030073;28;20483;-69
2021/06/03 06:14:01;;;;;;;6.90;4.97;;;22.60;57.50;;;;;;5030341;28;20026;-69
2021/06/03 06:16:26;;;;;;;10.73;5.55;;;22.50;57.10;;;;;;5030764;28;20021;-70
2021/06/03 06:18:52;;;;;;;5.43;4.95;;;22.40;57.40;;;;;;5051902;23;20046;-67
2021/06/03 06:21:20;;;;;;;5.80;5.25;;;22.50;57.40;;;;;;5029928;28;20032;-67
2021/06/03 06:23:47;;;;;;;6.10;4.97;;;22.50;57.10;;;;;;5029018;28;20025;-66
2021/06/03 06:26:13;;;;;;;5.82;4.82;;;22.50;57.10;;;;;;5022191;28;20100;-67
2021/06/03 06:28:39;;;;;;;8.43;5.53;;;22.50;57.20;;;;;;5014055;28;20033;-65
2021/06/03 06:31:06;;;;;;;5.53;4.70;;;22.60;57.40;;;;;;5016740;28;20041;-66
2021/06/03 06:33:34;;;;;;;10.00;4.78;;;22.60;57.10;;;;;;5020192;28;20472;-65
2021/06/03 06:36:00;;;;;;;5.60;4.80;;;22.60;57.10;;;;;;5019733;28;20037;-65
2021/06/03 06:38:26;;;;;;;8.40;4.72;;;22.60;57.10;;;;;;5019655;28;20542;-65
2021/06/03 06:40:53;;;;;;;8.10;5.57;;;22.70;56.80;;;;;;5020636;28;20033;-65
2021/06/03 06:43:19;;;;;;;5.05;4.20;;;22.70;56.70;;;;;;5019494;28;20519;-65
2021/06/03 06:45:46;;;;;;;8.25;4.70;;;22.60;56.90;;;;;;5017212;28;20129;-66
2021/06/03 06:48:13;;;;;;;6.38;4.65;;;22.60;57.10;;;;;;5018992;28;20066;-65
2021/06/03 06:50:40;;;;;;;6.95;4.68;;;22.60;57.10;;;;;;5020985;28;20553;-65
2021/06/03 06:53:06;;;;;;;14.00;5.07;;;22.60;57.20;;;;;;5019423;28;20060;-66
2021/06/03 06:55:34;;;;;;;5.30;4.80;;;22.70;57.10;;;;;;5021053;28;20515;-66
2021/06/03 06:58:00;;;;;;;6.05;4.95;;;22.70;56.90;;;;;;5017452;28;20396;-65
2021/06/03 07:00:28;;;;;;;7.88;5.05;;;22.60;57.10;;;;;;5019613;28;20034;-65
2021/06/03 07:02:54;;;;;;;8.45;5.15;;;22.60;57.30;;;;;;5018830;28;20041;-65
2021/06/03 07:05:20;;;;;;;10.55;5.28;;;22.80;57.10;;;;;;5019185;28;20026;-65
2021/06/03 07:07:46;;;;;;;7.38;4.75;;;22.90;56.70;;;;;;5020010;28;20040;-65
2021/06/03 07:10:13;;;;;;;6.05;4.75;;;22.90;56.40;;;;;;5018779;28;20029;-66
2021/06/03 07:12:40;;;;;;;8.63;4.45;;;22.80;56.60;;;;;;5019679;28;20056;-69
2021/06/03 07:15:13;;;;;;;5.05;4.28;;;22.70;57.20;;;;;;5018929;28;20030;-70
2021/06/03 07:17:39;;;;;;;8.30;5.65;;;22.60;57.30;;;;;;5016568;28;20041;-69
2021/06/03 07:20:09;;;;;;;5.97;4.93;;;22.50;57.60;;;;;;5001027;28;20035;-69
2021/06/03 07:22:35;;;;;;;8.00;4.63;;;22.50;57.70;;;;;;5019873;28;20056;-69
2021/06/03 07:25:01;;;;;;;6.53;4.47;;;22.50;57.90;;;;;;5019212;28;20034;-68
2021/06/03 07:27:26;;;;;;;7.13;4.88;;;22.60;57.80;;;;;;5018822;28;20014;-68
2021/06/03 07:29:58;;;;;;;8.73;4.32;;;22.70;58.00;;;;;;5017813;28;20040;-70
2021/06/03 07:32:24;;;;;;;6.20;5.15;;;22.90;57.80;;;;;;5018924;28;20018;-70
2021/06/03 07:34:49;;;;;;;8.23;4.68;;;23.10;57.50;;;;;;5018621;28;20037;-70
2021/06/03 07:37:14;;;;;;;7.18;4.22;;;23.40;57.40;;;;;;5018869;28;20041;-70
2021/06/03 07:39:40;;;;;;;6.78;4.38;;;23.60;56.70;;;;;;5017945;28;20547;-70
2021/06/03 07:42:06;;;;;;;6.47;3.97;;;23.80;56.60;;;;;;5018812;28;20026;-70
2021/06/03 07:44:32;;;;;;;4.25;3.85;;;23.80;56.10;;;;;;5018794;28;20048;-69
2021/06/03 07:46:57;;;;;;;4.95;4.20;;;23.80;55.50;;;;;;5033056;28;20513;-66
2021/06/03 07:49:23;;;;;;;10.10;4.35;;;24.00;55.60;;;;;;5018166;28;20033;-67
2021/06/03 07:51:48;;;;;;;24.48;6.78;;;24.20;55.50;;;;;;5016775;28;20038;-67
2021/06/03 07:54:14;;;;;;;10.95;3.95;;;24.50;55.30;;;;;;5019503;28;20100;-66
2021/06/03 07:56:39;;;;;;;7.15;3.63;;;24.70;55.20;;;;;;5019320;28;20018;-68
2021/06/03 07:59:06;;;;;;;10.02;5.20;;;24.90;54.90;;;;;;5017664;28;20119;-67
2021/06/03 08:01:31;;;;;;;9.55;3.97;;;25.00;54.20;;;;;;5014650;28;20376;-66
2021/06/03 08:03:57;;;;;;;6.97;3.55;;;25.10;54.10;;;;;;5018560;28;20033;-67
2021/06/03 08:06:22;;;;;;;8.20;3.97;;;25.00;54.10;;;;;;5019027;28;20424;-66
2021/06/03 08:08:48;;;;;;;4.85;3.67;;;24.90;54.40;;;;;;5018382;28;20026;-66
2021/06/03 08:11:14;;;;;;;4.82;4.25;;;24.90;54.80;;;;;;5017752;28;20030;-66
2021/06/03 08:13:39;;;;;;;5.22;3.53;;;25.10;54.60;;;;;;5018650;28;20022;-66
2021/06/03 08:16:05;;;;;;;4.03;3.60;;;25.30;54.50;;;;;;5018790;28;20029;-66
2021/06/03 08:18:31;;;;;;;8.55;4.60;;;25.50;54.30;;;;;;5015065;28;20056;-66
2021/06/03 08:20:59;;;;;;;5.60;3.10;;;25.50;53.70;;;;;;5014777;28;20033;-66
2021/06/03 08:23:28;;;;;;;6.53;3.67;;;25.70;54.60;;;;;;5019497;28;20029;-66
2021/06/03 08:25:56;;;;;;;6.38;3.85;;;25.70;53.50;;;;;;5018448;28;20025;-66
2021/06/03 08:28:21;;;;;;;4.50;3.40;;;25.70;53.10;;;;;;5017515;28;20575;-66
2021/06/03 08:30:47;;;;;;;5.18;3.30;;;25.60;52.30;;;;;;5018160;28;20033;-66
2021/06/03 08:33:13;;;;;;;5.88;3.33;;;25.40;52.80;;;;;;5019578;28;20065;-66
2021/06/03 08:35:40;;;;;;;5.50;4.32;;;25.30;53.10;;;;;;5014237;28;20098;-66
2021/06/03 08:38:10;;;;;;;6.25;3.80;;;25.20;53.00;;;;;;5015598;28;20025;-66
2021/06/03 08:40:42;;;;;;;4.22;3.60;;;25.10;53.80;;;;;;5019314;28;20014;-66
2021/06/03 08:43:08;;;;;;;9.80;4.03;;;25.00;53.70;;;;;;5018380;28;20117;-66
2021/06/03 08:45:38;;;;;;;5.30;3.80;;;25.00;53.70;;;;;;5018805;28;20054;-66
2021/06/03 08:48:04;;;;;;;4.57;3.55;;;25.00;53.30;;;;;;5017362;28;20049;-66
2021/06/03 08:50:34;;;;;;;11.38;4.07;;;24.90;53.60;;;;;;5017304;28;20064;-66
2021/06/03 08:53:01;;;;;;;4.93;3.60;;;24.90;53.70;;;;;;5016076;28;20033;-66
2021/06/03 08:58:15;;;;;;;7.93;3.60;;;24.80;54.60;;;;;;5021641;28;20119;-66
2021/06/03 09:00:42;;;;;;;4.25;3.67;;;24.90;53.70;;;;;;5022177;28;20025;-67
2021/06/03 09:03:08;;;;;;;4.68;4.25;;;24.90;53.60;;;;;;5022201;28;20037;-67
2021/06/03 09:05:34;;;;;;;7.13;4.35;;;25.00;53.70;;;;;;5021414;28;20037;-67
2021/06/03 09:08:26;;;;;;;5.97;4.15;;;25.10;53.80;;;;;;5019089;28;20116;-66
2021/06/03 09:10:56;;;;;;;8.35;4.57;;;25.10;53.70;;;;;;5022604;28;20030;-66
2021/06/03 09:13:29;;;;;;;5.95;3.70;;;25.00;53.90;;;;;;5021558;28;20037;-66
2021/06/03 09:16:08;;;;;;;7.35;4.88;;;25.10;54.20;;;;;;5020846;28;20097;-66
2021/06/03 09:18:36;;;;;;;5.82;3.88;;;25.20;54.20;;;;;;5021039;28;20660;-66
2021/06/03 09:21:18;;;;;;;7.22;4.55;;;25.40;53.50;;;;;;5021951;28;20021;-66
2021/06/03 09:23:55;;;;;;;5.55;4.25;;;25.50;53.50;;;;;;5021389;28;20163;-66
2021/06/03 09:26:22;;;;;;;4.15;3.75;;;25.60;53.80;;;;;;5019360;28;20423;-66
2021/06/03 09:28:49;;;;;;;6.45;4.07;;;25.70;52.60;;;;;;5019379;28;20022;-66
2021/06/03 09:31:36;;;;;;;5.20;2.95;;;25.70;53.00;;;;;;5021264;28;20029;-65
2021/06/03 09:34:09;;;;;;;8.27;3.75;;;25.80;52.90;;;;;;5021220;28;20033;-65
2021/06/03 09:36:46;;;;;;;7.82;3.38;;;25.90;52.80;;;;;;5020857;28;20514;-65
2021/06/03 09:39:21;;;;;;;9.50;3.88;;;25.90;53.10;;;;;;5020344;28;20488;-65
2021/06/03 09:41:57;;;;;;;8.77;5.07;;;26.00;53.20;;;;;;5019393;28;20140;-66
2021/06/03 09:44:32;;;;;;;6.85;3.15;;;26.10;53.00;;;;;;5021678;28;20065;-65
2021/06/03 09:47:14;;;;;;;3.42;3.13;;;26.20;52.80;;;;;;5019822;28;20040;-65
2021/06/03 09:49:42;;;;;;;4.90;2.90;;;26.40;52.00;;;;;;5019668;28;20088;-66
2021/06/03 09:52:10;;;;;;;5.22;3.45;;;26.40;51.30;;;;;;5019778;28;20068;-65
2021/06/03 09:54:37;;;;;;;7.97;4.07;;;26.40;51.90;;;;;;5018660;28;20021;-66
2021/06/03 09:57:06;;;;;;;5.60;3.25;;;26.40;51.20;;;;;;5020316;28;20041;-65
2021/06/03 09:59:41;;;;;;;5.50;4.35;;;26.20;51.70;;;;;;5015811;28;20117;-65
2021/06/03 10:02:08;;;;;;;5.60;3.78;;;26.20;53.00;;;;;;5019799;28;20038;-65
2021/06/03 10:04:49;;;;;;;4.85;3.72;;;26.20;51.90;;;;;;5019605;28;20030;-65
2021/06/03 10:07:14;;;;;;;8.70;3.40;;;26.30;51.80;;;;;;5018744;28;20052;-66
2021/06/03 10:09:56;;;;;;;6.30;4.97;;;26.40;52.00;;;;;;5017814;28;20504;-66
2021/06/03 10:12:27;;;;;;;4.68;3.45;;;26.50;51.40;;;;;;5019947;28;20030;-66
2021/06/03 10:14:57;;;;;;;7.05;3.58;;;26.50;51.70;;;;;;5018900;28;20026;-66
2021/06/03 10:18:00;;;;;;;9.70;4.05;;;26.70;52.00;;;;;;5018543;28;20030;-66
2021/06/03 10:20:45;;;;;;;16.75;4.07;;;27.10;51.90;;;;;;5022513;28;20096;-66
2021/06/03 10:23:23;;;;;;;9.18;4.32;;;27.40;51.40;;;;;;5021141;28;20026;-66
2021/06/03 10:25:59;;;;;;;4.07;3.70;;;27.40;51.00;;;;;;5019361;28;20080;-65
2021/06/03 10:28:25;;;;;;;4.30;3.92;;;27.40;50.90;;;;;;5017023;28;20022;-66
2021/06/03 10:30:53;;;;;;;4.85;4.32;;;27.20;50.90;;;;;;5010966;28;20033;-66
2021/06/03 10:33:26;;;;;;;4.43;3.38;;;27.20;50.70;;;;;;5015687;28;20021;-65
2021/06/03 10:36:00;;;;;;;4.32;2.92;;;27.20;50.30;;;;;;5017189;28;20045;-66
2021/06/03 10:38:26;;;;;;;6.53;3.83;;;27.10;49.60;;;;;;5019098;28;20022;-64
2021/06/03 10:41:05;;;;;;;5.53;4.00;;;27.00;49.90;;;;;;5018919;28;20037;-64
2021/06/03 10:43:35;;;;;;;3.22;2.83;;;26.90;50.10;;;;;;5019588;28;20400;-64
2021/06/03 10:46:01;;;;;;;6.22;2.95;;;26.90;50.10;;;;;;5021132;28;20648;-65
2021/06/03 10:48:26;;;;;;;5.47;3.28;;;26.70;50.00;;;;;;5019913;28;20037;-65
2021/06/03 10:50:53;;;;;;;4.50;3.25;;;26.60;50.30;;;;;;5019639;28;20033;-65
2021/06/03 10:53:24;;;;;;;5.63;3.20;;;26.50;50.10;;;;;;5016352;28;20024;-65
2021/06/03 10:56:21;;;;;;;4.47;3.45;;;26.40;50.40;;;;;;5019441;28;20030;-66
2021/06/03 10:58:49;;;;;;;8.82;3.42;;;26.30;51.00;;;;;;5018810;28;20018;-65
2021/06/03 11:01:18;;;;;;;4.85;3.25;;;26.30;51.30;;;;;;5018807;28;20057;-65
2021/06/03 11:03:46;;;;;;;9.80;2.75;;;26.30;51.40;;;;;;5020647;28;20021;-65
2021/06/03 11:06:14;;;;;;;3.70;2.78;;;26.30;51.50;;;;;;5020170;28;20025;-65
2021/06/03 11:08:45;;;;;;;4.15;3.08;;;26.40;51.30;;;;;;5014118;28;20026;-65
2021/06/03 11:11:11;;;;;;;3.47;3.13;;;26.40;51.40;;;;;;5017739;28;20053;-65
2021/06/03 11:13:47;;;;;;;4.13;3.50;;;26.40;51.60;;;;;;5019741;28;20049;-65
2021/06/03 11:16:16;;;;;;;7.75;2.55;;;26.40;51.60;;;;;;5018402;28;20436;-65
2021/06/03 11:18:45;;;;;;;8.65;5.20;;;26.40;51.80;;;;;;5019425;28;20450;-65
2021/06/03 11:21:32;;;;;;;7.05;4.22;;;26.40;51.50;;;;;;5019123;28;20057;-66
2021/06/03 11:23:59;;;;;;;11.07;5.22;;;26.40;51.40;;;;;;5018364;28;20040;-65
2021/06/03 11:29:29;;;;;;;4.55;3.15;;;26.20;51.90;;;;;;5019178;28;20030;-67
2021/06/03 11:32:01;;;;;;;6.35;3.85;;;26.30;52.00;;;;;;5019461;28;20029;-66
2021/06/03 11:34:40;;;;;;;5.18;3.20;;;26.30;51.80;;;;;;5018364;28;20105;-66
2021/06/03 11:37:13;;;;;;;8.93;3.33;;;26.30;51.70;;;;;;5016403;28;20036;-66
2021/06/03 11:39:43;;;;;;;6.75;3.10;;;26.40;51.40;;;;;;5017747;28;20523;-66
2021/06/03 11:42:25;;;;;;;5.47;2.40;;;26.40;51.40;;;;;;5017870;28;20025;-67
2021/06/03 11:45:11;;;;;;;4.38;2.45;;;26.50;50.50;;;;;;5019929;28;20497;-67
2021/06/03 11:47:37;;;;;;;5.82;2.85;;;26.50;49.80;;;;;;5018467;28;20033;-67
2021/06/03 11:50:26;;;;;;;4.47;1.92;;;26.50;50.20;;;;;;5018164;28;20033;-66
2021/06/03 11:53:01;;;;;;;9.32;2.78;;;26.40;50.40;;;;;;5016768;28;20033;-67
2021/06/03 11:55:31;;;;;;;7.07;3.17;;;26.50;50.50;;;;;;5019526;28;20029;-67
2021/06/03 11:58:11;;;;;;;4.50;2.92;;;26.70;50.80;;;;;;5017199;28;20049;-66
2021/06/03 12:00:43;;;;;;;4.97;2.35;;;26.80;50.00;;;;;;5015026;28;20022;-67
2021/06/03 12:03:23;;;;;;;5.20;3.08;;;26.80;49.80;;;;;;5018765;28;20029;-68
2021/06/03 12:05:49;;;;;;;3.30;2.08;;;26.80;49.40;;;;;;5003761;28;20067;-68
2021/06/03 12:08:42;;;;;;;8.10;3.67;;;26.80;49.30;;;;;;5018007;28;20021;-67
2021/06/03 12:11:40;;;;;;;10.18;6.82;;;26.80;49.20;;;;;;5018017;28;20035;-68
2021/06/03 12:14:17;;;;;;;2.97;2.53;;;26.70;48.80;;;;;;5024003;28;20120;-67
2021/06/03 12:16:48;;;;;;;6.90;3.78;;;26.80;49.20;;;;;;5015740;28;20014;-70
2021/06/03 12:19:23;;;;;;;7.90;2.80;;;26.80;48.70;;;;;;5053110;22;20044;-54
2021/06/03 12:21:56;;;;;;;3.67;2.30;;;26.70;48.80;;;;;;5041207;28;20017;-57
2021/06/03 12:24:31;;;;;;;3.40;3.05;;;26.80;49.20;;;;;;5024604;28;20040;-54
2021/06/03 12:26:57;;;;;;;7.35;2.55;;;26.80;48.50;;;;;;5024598;28;20513;-54
2021/06/03 12:29:29;;;;;;;5.78;3.28;;;26.80;48.90;;;;;;5024161;28;20087;-55
2021/06/03 12:31:54;;;;;;;5.22;2.38;;;26.90;48.30;;;;;;5023854;28;20049;-55
2021/06/03 12:34:27;;;;;;;2.90;2.60;;;27.00;48.70;;;;;;5020336;28;20025;-57
2021/06/03 12:36:53;;;;;;;2.97;2.35;;;26.90;48.10;;;;;;5025922;28;20022;-56
2021/06/03 12:39:19;;;;;;;5.50;2.83;;;26.90;48.30;;;;;;5023954;28;20513;-58
2021/06/03 12:41:46;;;;;;;6.15;3.22;;;27.00;48.70;;;;;;5025459;28;20500;-55
2021/06/03 12:44:16;;;;;;;5.10;2.20;;;27.10;48.60;;;;;;5023866;28;20029;-56
2021/06/03 12:46:46;;;;;;;8.15;5.45;;;27.10;48.50;;;;;;5023626;28;20032;-58
2021/06/03 12:49:20;;;;;;;11.45;7.45;;;27.10;47.80;;;;;;5020761;28;20065;-56
2021/06/03 12:52:05;;;;;;;6.55;5.78;;;27.10;48.40;;;;;;5021349;28;20030;-57
2021/06/03 12:54:44;;;;;;;5.88;3.13;;;27.10;48.60;;;;;;5023708;28;20782;-60
2021/06/03 12:57:13;;;;;;;5.15;2.50;;;27.10;48.40;;;;;;5023583;28;20489;-58
2021/06/03 12:59:40;;;;;;;10.88;3.03;;;27.20;48.70;;;;;;5022204;28;20064;-57